createdAt,value
2024-03-08T00:01:35.979Z,0.50
2024-03-08T00:04:08.432Z,0.49
2024-03-08T00:06:41.101Z,0.50
2024-03-08T00:09:12.509Z,0.43
2024-03-08T00:11:43.899Z,0.41
2024-03-08T00:14:15.431Z,0.32
2024-03-08T00:16:47.183Z,0.22
2024-03-08T00:19:19.079Z,0.06
2024-03-08T00:21:50.602Z,0.07
2024-03-08T00:24:25.613Z,0.17
2024-03-08T00:26:56.929Z,0.14
2024-03-08T00:29:28.924Z,0.10
2024-03-08T00:32:00.436Z,-0.02
2024-03-08T00:34:33.052Z,0.10
2024-03-08T00:37:04.369Z,0.15
2024-03-08T00:39:35.811Z,0.17
2024-03-08T00:42:07.566Z,0.31
2024-03-08T00:44:39.166Z,0.29
2024-03-08T00:47:10.885Z,0.22
2024-03-08T00:49:44.334Z,0.14
2024-03-08T00:52:16.840Z,0.11
2024-03-08T00:54:48.435Z,0.18
2024-03-08T00:57:20.333Z,0.16
2024-03-08T00:59:52.095Z,0.11
2024-03-08T01:02:24.674Z,0.11
2024-03-08T01:04:56.322Z,0.02
2024-03-08T01:07:27.719Z,-0.12
2024-03-08T01:09:59.157Z,-0.14
2024-03-08T01:12:31.278Z,-0.18
2024-03-08T01:15:03.428Z,-0.18
2024-03-08T01:17:34.981Z,-0.10
2024-03-08T01:20:07.419Z,-0.16
2024-03-08T01:22:38.933Z,-0.21
2024-03-08T01:25:11.650Z,-0.28
2024-03-08T01:27:43.128Z,-0.45
2024-03-08T01:30:18.854Z,-0.42
2024-03-08T01:32:50.334Z,-0.50
2024-03-08T01:35:23.813Z,-0.46
2024-03-08T01:37:55.426Z,-0.47
2024-03-08T01:40:26.790Z,-0.53
2024-03-08T01:42:58.231Z,-0.43
2024-03-08T01:45:30.737Z,-0.34
2024-03-08T01:48:02.393Z,-0.41
2024-03-08T01:50:33.930Z,-0.40
2024-03-08T01:53:06.373Z,-0.35
2024-03-08T01:55:39.203Z,-0.31
2024-03-08T01:58:12.283Z,-0.41
2024-03-08T02:00:46.464Z,-0.55
2024-03-08T02:03:18.204Z,-0.51
2024-03-08T02:05:51.460Z,-0.39
2024-03-08T02:08:24.183Z,-0.39
2024-03-08T02:10:55.876Z,-0.24
2024-03-08T02:13:28.810Z,-0.23
2024-03-08T02:16:01.833Z,-0.36
2024-03-08T02:18:36.304Z,-0.40
2024-03-08T02:21:10.618Z,-0.47
2024-03-08T02:23:42.448Z,-0.41
2024-03-08T02:26:14.253Z,-0.30
2024-03-08T02:28:47.243Z,-0.35
2024-03-08T02:31:19.044Z,-0.35
2024-03-08T02:33:50.626Z,-0.39
2024-03-08T02:36:23.103Z,-0.45
2024-03-08T02:38:57.042Z,-0.53
2024-03-08T02:41:29.863Z,-0.67
2024-03-08T02:44:01.309Z,-0.69
2024-03-08T02:46:32.814Z,-0.70
2024-03-08T02:49:04.289Z,-0.82
2024-03-08T02:51:36.786Z,-0.81
2024-03-08T02:54:09.631Z,-0.74
2024-03-08T02:56:41.188Z,-0.56
2024-03-08T02:59:12.497Z,-0.67
2024-03-08T03:01:44.457Z,-0.69
2024-03-08T03:04:16.258Z,-0.81
2024-03-08T03:06:47.539Z,-0.98
2024-03-08T03:09:24.942Z,-0.96
2024-03-08T03:11:56.895Z,-1.01
2024-03-08T03:14:28.661Z,-1.02
2024-03-08T03:17:00.004Z,-0.82
2024-03-08T03:19:31.624Z,-0.87
2024-03-08T03:22:04.616Z,-1.07
2024-03-08T03:24:39.664Z,-1.18
2024-03-08T03:27:13.270Z,-1.17
2024-03-08T03:29:47.206Z,-1.03
2024-03-08T03:32:20.162Z,-0.94
2024-03-08T03:34:54.172Z,-0.95
2024-03-08T03:37:25.808Z,-1.09
2024-03-08T03:40:04.620Z,-1.12
2024-03-08T03:42:35.867Z,-1.10
2024-03-08T03:45:10.828Z,-1.03
2024-03-08T03:47:42.205Z,-0.99
2024-03-08T03:50:14.285Z,-1.04
2024-03-08T03:52:45.802Z,-1.13
2024-03-08T03:55:17.696Z,-1.10
2024-03-08T03:57:49.785Z,-1.15
2024-03-08T04:00:21.786Z,-1.19
2024-03-08T04:03:11.369Z,-1.26
2024-03-08T04:05:51.563Z,-1.32
2024-03-08T04:08:29.075Z,-1.32
2024-03-08T04:11:00.914Z,-1.30
2024-03-08T04:13:32.716Z,-1.22
2024-03-08T04:16:04.139Z,-1.13
2024-03-08T04:18:37.176Z,-1.19
2024-03-08T04:21:10.368Z,-1.22
2024-03-08T04:23:41.810Z,-1.25
2024-03-08T04:26:16.712Z,-1.23
2024-03-08T04:28:49.631Z,-1.15
2024-03-08T04:31:21.112Z,-1.07
2024-03-08T04:33:52.864Z,-1.09
2024-03-08T04:36:26.294Z,-1.12
2024-03-08T04:38:58.071Z,-1.18
2024-03-08T04:41:31.620Z,-1.16
2024-03-08T04:44:03.250Z,-1.19
2024-03-08T04:46:36.737Z,-1.23
2024-03-08T04:49:08.612Z,-1.16
2024-03-08T04:51:40.107Z,-0.98
2024-03-08T04:54:11.821Z,-0.96
2024-03-08T04:56:44.120Z,-0.93
2024-03-08T04:59:15.857Z,-0.93
2024-03-08T05:01:48.741Z,-1.10
2024-03-08T05:04:20.708Z,-1.23
2024-03-08T05:06:52.536Z,-1.16
2024-03-08T05:09:25.086Z,-1.16
2024-03-08T05:11:56.482Z,-1.12
2024-03-08T05:14:28.093Z,-1.07
2024-03-08T05:16:59.567Z,-1.10
2024-03-08T05:19:34.780Z,-1.28
2024-03-08T05:22:06.938Z,-1.14
2024-03-08T05:24:39.653Z,-1.06
2024-03-08T05:27:11.058Z,-0.87
2024-03-08T05:29:42.599Z,-0.83
2024-03-08T05:32:14.122Z,-0.90
2024-03-08T05:34:45.952Z,-0.87
2024-03-08T05:37:17.582Z,-0.85
2024-03-08T05:39:49.836Z,-0.77
2024-03-08T05:42:22.084Z,-0.68
2024-03-08T05:44:53.540Z,-0.39
2024-03-08T05:47:26.587Z,0.25
2024-03-08T05:49:59.950Z,1.13
2024-03-08T05:52:31.668Z,2.06
2024-03-08T05:55:04.401Z,2.94
2024-03-08T05:57:35.709Z,3.72
2024-03-08T06:00:12.553Z,4.54
2024-03-08T06:02:44.520Z,5.17
2024-03-08T06:05:16.058Z,5.43
2024-03-08T06:07:47.725Z,5.34
2024-03-08T06:10:19.282Z,5.40
2024-03-08T06:12:50.611Z,6.01
2024-03-08T06:15:22.508Z,6.59
2024-03-08T06:17:54.959Z,6.98
2024-03-08T06:20:27.699Z,7.19
2024-03-08T06:23:01.133Z,7.44
2024-03-08T06:25:32.718Z,7.68
2024-03-08T06:28:04.633Z,7.94
2024-03-08T06:30:36.333Z,8.23
2024-03-08T06:33:09.823Z,8.33
2024-03-08T06:35:41.602Z,8.41
2024-03-08T06:38:14.633Z,8.59
2024-03-08T06:41:03.961Z,8.94
2024-03-08T06:43:35.839Z,9.14
2024-03-08T06:46:08.949Z,9.17
2024-03-08T06:48:41.650Z,9.15
2024-03-08T06:51:14.273Z,9.29
2024-03-08T06:53:48.520Z,9.31
2024-03-08T06:56:21.232Z,9.28
2024-03-08T06:58:55.365Z,9.43
2024-03-08T07:01:39.148Z,9.61
2024-03-08T07:04:13.411Z,9.85
2024-03-08T07:06:47.310Z,10.07
2024-03-08T07:09:21.036Z,10.18
2024-03-08T07:11:56.337Z,10.19
2024-03-08T07:14:29.079Z,10.28
2024-03-08T07:17:04.037Z,10.32
2024-03-08T07:19:37.334Z,10.40
2024-03-08T07:22:11.744Z,10.37
2024-03-08T07:25:06.410Z,10.42
2024-03-08T07:27:38.323Z,10.38
2024-03-08T07:30:14.239Z,10.41
2024-03-08T07:32:47.476Z,10.33
2024-03-08T07:35:21.101Z,10.15
2024-03-08T07:37:53.087Z,10.03
2024-03-08T07:40:25.116Z,9.88
2024-03-08T07:42:57.274Z,9.62
2024-03-08T07:45:29.593Z,9.59
2024-03-08T07:48:01.779Z,9.51
2024-03-08T07:50:34.896Z,9.53
2024-03-08T07:53:07.932Z,9.41
2024-03-08T07:55:41.436Z,9.45
2024-03-08T07:58:15.118Z,9.65
2024-03-08T08:00:48.061Z,9.65
2024-03-08T08:03:22.498Z,9.65
2024-03-08T08:05:55.362Z,9.73
2024-03-08T08:08:27.888Z,9.73
2024-03-08T08:10:59.909Z,9.62
2024-03-08T08:13:33.972Z,9.60
2024-03-08T08:16:07.286Z,9.79
2024-03-08T08:18:42.411Z,9.86
2024-03-08T08:21:14.221Z,9.82
2024-03-08T08:23:47.471Z,9.58
2024-03-08T08:26:20.266Z,9.48
2024-03-08T08:28:56.383Z,9.36
2024-03-08T08:31:28.589Z,9.19
2024-03-08T08:34:01.396Z,9.18
2024-03-08T08:36:35.544Z,9.20
2024-03-08T08:39:14.085Z,9.28
2024-03-08T08:41:51.147Z,9.23
2024-03-08T08:44:23.525Z,9.15
2024-03-08T08:46:59.754Z,9.19
2024-03-08T08:49:39.337Z,9.48
2024-03-08T08:52:16.550Z,9.51
2024-03-08T08:54:51.421Z,9.40
2024-03-08T08:57:24.596Z,9.17
2024-03-08T09:00:03.551Z,8.93
2024-03-08T09:02:39.323Z,8.89
2024-03-08T09:05:16.582Z,8.86
2024-03-08T09:07:48.800Z,8.98
2024-03-08T09:10:23.242Z,9.16
2024-03-08T09:12:55.056Z,9.25
2024-03-08T09:15:30.460Z,9.40
2024-03-08T09:18:02.651Z,9.48
2024-03-08T09:20:35.129Z,9.50
2024-03-08T09:23:07.748Z,9.54
2024-03-08T09:25:40.568Z,9.63
2024-03-08T09:28:13.709Z,9.48
2024-03-08T09:30:54.065Z,9.29
2024-03-08T09:33:32.651Z,9.29
2024-03-08T09:36:05.444Z,9.34
2024-03-08T09:38:37.730Z,9.41
2024-03-08T09:41:11.877Z,9.53
2024-03-08T09:43:44.344Z,9.67
2024-03-08T09:46:17.474Z,9.81
2024-03-08T09:48:52.273Z,9.70
2024-03-08T09:51:25.340Z,9.79
2024-03-08T09:53:57.578Z,9.94
2024-03-08T09:56:30.607Z,10.00
2024-03-08T09:59:42.681Z,9.92
2024-03-08T10:02:20.125Z,9.70
2024-03-08T10:04:54.928Z,9.65
2024-03-08T10:07:26.251Z,9.58
2024-03-08T10:09:59.466Z,9.58
2024-03-08T10:12:33.084Z,9.58
2024-03-08T10:15:05.377Z,9.52
2024-03-08T10:17:37.405Z,9.54
2024-03-08T10:20:19.281Z,9.54
2024-03-08T10:22:58.761Z,9.33
2024-03-08T10:25:41.573Z,9.16
2024-03-08T10:28:14.239Z,9.15
2024-03-08T10:30:52.159Z,9.24
2024-03-08T10:33:26.760Z,9.15
2024-03-08T10:35:59.711Z,9.07
2024-03-08T10:38:35.546Z,8.92
2024-03-08T10:41:10.343Z,8.82
2024-03-08T10:44:09.991Z,8.76
2024-03-08T10:47:02.689Z,8.89
2024-03-08T10:49:41.217Z,9.19
2024-03-08T10:52:15.749Z,9.15
2024-03-08T10:54:50.589Z,9.01
2024-03-08T10:57:25.906Z,8.86
2024-03-08T10:59:59.941Z,8.73
2024-03-08T11:02:33.455Z,8.59
2024-03-08T11:05:14.429Z,8.54
2024-03-08T11:07:49.491Z,8.58
2024-03-08T11:10:26.799Z,8.69
2024-03-08T11:13:00.206Z,8.84
2024-03-08T11:15:35.478Z,8.84
2024-03-08T11:18:11.998Z,8.71
2024-03-08T11:20:44.142Z,8.75
2024-03-08T11:23:16.305Z,8.87
2024-03-08T11:25:52.001Z,8.97
2024-03-08T11:28:25.968Z,8.90
2024-03-08T11:31:30.156Z,8.81
2024-03-08T11:34:02.713Z,8.91
2024-03-08T11:36:39.366Z,8.86
2024-03-08T11:39:16.152Z,9.01
2024-03-08T11:41:48.054Z,9.17
2024-03-08T11:44:19.784Z,9.17
2024-03-08T11:46:51.292Z,9.10
2024-03-08T11:49:23.651Z,9.02
2024-03-08T11:51:57.971Z,9.03
2024-03-08T11:54:31.357Z,9.04
2024-03-08T11:57:03.685Z,8.99
2024-03-08T11:59:35.565Z,9.03
2024-03-08T12:02:11.763Z,9.16
2024-03-08T12:04:43.658Z,9.16
2024-03-08T12:07:20.400Z,9.12
2024-03-08T12:10:23.391Z,9.23
2024-03-08T12:13:00.951Z,9.24
2024-03-08T12:15:36.483Z,9.21
2024-03-08T12:18:09.278Z,9.18
2024-03-08T12:20:45.783Z,9.28
2024-03-08T12:23:20.584Z,9.40
2024-03-08T12:25:52.790Z,9.33
2024-03-08T12:28:24.501Z,9.23
2024-03-08T12:30:58.736Z,9.27
2024-03-08T12:33:31.162Z,9.25
2024-03-08T12:36:08.402Z,9.43
2024-03-08T12:38:40.102Z,9.68
2024-03-08T12:41:14.576Z,9.74
2024-03-08T12:43:50.185Z,9.59
2024-03-08T12:46:23.604Z,9.69
2024-03-08T12:48:55.593Z,9.83
2024-03-08T12:51:27.220Z,9.84
2024-03-08T12:53:59.200Z,9.79
2024-03-08T12:56:35.381Z,9.71
2024-03-08T12:59:07.866Z,9.70
2024-03-08T13:01:40.334Z,9.64
2024-03-08T13:04:13.058Z,9.58
2024-03-08T13:06:44.833Z,9.67
2024-03-08T13:09:16.997Z,9.71
2024-03-08T13:11:50.251Z,9.78
2024-03-08T13:14:22.280Z,9.74
2024-03-08T13:16:57.167Z,9.74
2024-03-08T13:19:29.754Z,9.75
2024-03-08T13:22:05.896Z,9.83
2024-03-08T13:24:38.598Z,9.71
2024-03-08T13:27:20.873Z,9.61
2024-03-08T13:29:53.970Z,9.51
2024-03-08T13:32:26.724Z,9.63
2024-03-08T13:34:58.695Z,9.72
2024-03-08T13:37:30.978Z,9.71
2024-03-08T13:40:03.406Z,9.96
2024-03-08T13:42:35.278Z,9.97
2024-03-08T13:45:09.136Z,9.88
2024-03-08T13:47:42.513Z,9.74
2024-03-08T13:50:17.819Z,9.74
2024-03-08T13:52:53.554Z,9.81
2024-03-08T13:55:29.226Z,9.87
2024-03-08T13:58:01.948Z,9.91
2024-03-08T14:00:35.146Z,9.80
2024-03-08T14:03:08.481Z,9.80
2024-03-08T14:05:41.096Z,9.77
2024-03-08T14:08:14.251Z,9.79
2024-03-08T14:10:48.674Z,9.84
2024-03-08T14:13:22.718Z,9.85
2024-03-08T14:15:55.770Z,9.72
2024-03-08T14:18:27.388Z,9.77
2024-03-08T14:21:00.279Z,9.86
2024-03-08T14:23:34.432Z,9.92
2024-03-08T14:26:09.682Z,9.88
2024-03-08T14:28:43.221Z,9.97
2024-03-08T14:31:21.037Z,9.92
2024-03-08T14:33:52.967Z,9.97
2024-03-08T14:36:27.085Z,10.21
2024-03-08T14:38:58.774Z,10.35
2024-03-08T14:41:31.456Z,10.35
2024-03-08T14:44:03.756Z,10.28
2024-03-08T14:46:35.466Z,10.28
2024-03-08T14:49:09.967Z,10.15
2024-03-08T14:51:42.318Z,9.91
2024-03-08T14:54:19.137Z,9.68
2024-03-08T14:56:52.030Z,9.51
2024-03-08T14:59:24.665Z,9.35
2024-03-08T15:01:57.675Z,9.30
2024-03-08T15:04:29.685Z,9.34
2024-03-08T15:07:03.332Z,9.38
2024-03-08T15:09:41.280Z,9.30
2024-03-08T15:12:13.337Z,9.31
2024-03-08T15:14:47.790Z,9.35
2024-03-08T15:17:22.515Z,9.38
2024-03-08T15:19:53.810Z,9.21
2024-03-08T15:22:25.862Z,9.17
2024-03-08T15:24:59.664Z,9.17
2024-03-08T15:27:31.282Z,9.23
2024-03-08T15:30:04.731Z,9.26
2024-03-08T15:32:38.933Z,9.31
2024-03-08T15:35:15.065Z,9.20
2024-03-08T15:37:47.277Z,9.17
2024-03-08T15:40:23.789Z,9.22
2024-03-08T15:43:01.249Z,9.07
2024-03-08T15:45:33.801Z,9.12
2024-03-08T15:48:07.391Z,9.01
2024-03-08T15:50:39.840Z,8.88
2024-03-08T15:53:13.112Z,8.84
2024-03-08T15:55:49.773Z,8.85
2024-03-08T15:58:25.942Z,8.89
2024-03-08T16:01:00.884Z,8.90
2024-03-08T16:03:33.985Z,8.90
2024-03-08T16:06:09.638Z,9.00
2024-03-08T16:08:41.981Z,8.83
2024-03-08T16:11:20.318Z,8.70
2024-03-08T16:13:53.145Z,8.62
2024-03-08T16:16:28.830Z,8.70
2024-03-08T16:19:09.802Z,8.69
2024-03-08T16:21:46.128Z,8.63
2024-03-08T16:24:19.631Z,8.46
2024-03-08T16:26:53.901Z,8.38
2024-03-08T16:29:26.356Z,8.29
2024-03-08T16:32:00.995Z,8.30
2024-03-08T16:34:38.872Z,8.26
2024-03-08T16:37:15.391Z,8.11
2024-03-08T16:39:50.779Z,7.91
2024-03-08T16:42:28.521Z,7.88
2024-03-08T16:45:03.374Z,7.78
2024-03-08T16:47:40.981Z,7.80
2024-03-08T16:50:16.497Z,7.81
2024-03-08T16:52:56.822Z,7.64
2024-03-08T16:55:36.367Z,7.55
2024-03-08T16:58:17.003Z,7.47
2024-03-08T17:00:54.426Z,7.39
2024-03-08T17:03:56.524Z,7.38
2024-03-08T17:06:39.410Z,7.24
2024-03-08T17:09:14.796Z,7.21
2024-03-08T17:11:52.334Z,7.20
2024-03-08T17:14:29.650Z,7.02
2024-03-08T17:17:09.906Z,6.90
2024-03-08T17:19:44.956Z,6.71
2024-03-08T17:22:31.072Z,6.62
2024-03-08T17:25:11.564Z,6.63
2024-03-08T17:27:51.261Z,6.75
2024-03-08T17:30:28.233Z,6.57
2024-03-08T17:33:05.668Z,6.47
2024-03-08T17:35:39.842Z,6.36
2024-03-08T17:38:16.795Z,6.26
2024-03-08T17:40:49.919Z,6.06
2024-03-08T17:43:25.184Z,5.98
2024-03-08T17:46:00.290Z,5.94
2024-03-08T17:48:34.138Z,5.97
2024-03-08T17:51:10.205Z,5.88
2024-03-08T17:53:43.530Z,5.68
2024-03-08T17:56:18.358Z,5.50
2024-03-08T17:59:01.591Z,5.56
2024-03-08T18:01:39.407Z,5.72
2024-03-08T18:04:12.299Z,5.66
2024-03-08T18:06:52.929Z,5.71
2024-03-08T18:09:28.370Z,5.59
2024-03-08T18:12:06.586Z,5.44
2024-03-08T18:14:42.750Z,5.40
2024-03-08T18:17:15.766Z,5.45
2024-03-08T18:19:51.774Z,5.32
2024-03-08T18:22:25.658Z,5.16
2024-03-08T18:24:59.766Z,4.94
2024-03-08T18:27:31.922Z,4.80
2024-03-08T18:30:05.891Z,4.69
2024-03-08T18:32:37.686Z,4.64
2024-03-08T18:35:12.726Z,4.68
2024-03-08T18:37:46.663Z,4.73
2024-03-08T18:40:24.722Z,4.86
2024-03-08T18:42:59.738Z,4.82
2024-03-08T18:45:36.445Z,4.84
2024-03-08T18:48:13.429Z,4.74
2024-03-08T18:50:47.398Z,4.68
2024-03-08T18:53:21.196Z,4.52
2024-03-08T18:55:55.614Z,4.29
2024-03-08T18:58:39.169Z,4.16
2024-03-08T19:01:23.096Z,4.11
2024-03-08T19:03:56.755Z,4.30
2024-03-08T19:06:32.780Z,4.20
2024-03-08T19:09:06.871Z,4.03
2024-03-08T19:11:41.346Z,3.76
2024-03-08T19:14:13.760Z,3.61
2024-03-08T19:16:49.910Z,3.62
2024-03-08T19:19:24.356Z,3.51
2024-03-08T19:21:57.175Z,3.49
2024-03-08T19:24:29.134Z,3.45
2024-03-08T19:27:02.574Z,3.24
2024-03-08T19:29:34.523Z,3.15
2024-03-08T19:32:07.091Z,3.13
2024-03-08T19:34:40.639Z,3.04
2024-03-08T19:37:12.994Z,2.97
2024-03-08T19:39:46.289Z,3.02
2024-03-08T19:42:18.354Z,3.09
2024-03-08T19:44:51.738Z,3.09
2024-03-08T19:47:24.525Z,3.15
2024-03-08T19:49:58.187Z,3.11
2024-03-08T19:52:30.657Z,3.11
2024-03-08T19:55:02.545Z,2.88
2024-03-08T19:57:34.834Z,2.73
2024-03-08T20:00:16.795Z,2.91
2024-03-08T20:02:49.666Z,2.95
2024-03-08T20:05:23.753Z,2.79
2024-03-08T20:07:57.047Z,2.61
2024-03-08T20:10:30.238Z,2.46
2024-03-08T20:13:03.494Z,2.34
2024-03-08T20:15:41.944Z,2.32
2024-03-08T20:18:14.782Z,2.49
2024-03-08T20:20:50.253Z,2.61
2024-03-08T20:23:23.161Z,2.52
2024-03-08T20:25:55.442Z,2.35
2024-03-08T20:28:28.015Z,2.41
2024-03-08T20:31:00.248Z,2.45
2024-03-08T20:33:33.509Z,2.25
2024-03-08T20:36:07.066Z,2.19
2024-03-08T20:38:42.469Z,2.13
2024-03-08T20:41:16.953Z,2.11
2024-03-08T20:43:49.087Z,2.07
2024-03-08T20:46:21.101Z,1.99
2024-03-08T20:48:53.054Z,2.02
2024-03-08T20:51:26.801Z,2.10
2024-03-08T20:53:59.525Z,2.00
2024-03-08T20:56:32.425Z,2.08
2024-03-08T20:59:04.864Z,2.02
2024-03-08T21:01:37.949Z,2.09
2024-03-08T21:04:14.629Z,2.08
2024-03-08T21:06:49.507Z,2.18
2024-03-08T21:09:21.991Z,2.37
2024-03-08T21:11:54.110Z,2.39
2024-03-08T21:14:26.122Z,2.16
2024-03-08T21:17:00.242Z,2.11
2024-03-08T21:19:34.419Z,2.21
2024-03-08T21:22:06.864Z,2.22
2024-03-08T21:24:40.954Z,2.21
2024-03-08T21:27:12.690Z,2.32
2024-03-08T21:29:45.248Z,2.31
2024-03-08T21:32:16.988Z,2.26
2024-03-08T21:34:50.794Z,2.32
2024-03-08T21:37:22.754Z,2.34
2024-03-08T21:39:56.118Z,2.20
2024-03-08T21:42:28.569Z,2.11
2024-03-08T21:45:00.488Z,2.13
2024-03-08T21:47:32.908Z,2.23
2024-03-08T21:50:05.072Z,2.39
2024-03-08T21:52:37.796Z,2.28
2024-03-08T21:55:11.626Z,2.30
2024-03-08T21:57:45.657Z,2.21
2024-03-08T22:00:19.074Z,2.05
2024-03-08T22:02:51.440Z,2.20
2024-03-08T22:05:24.991Z,2.28
2024-03-08T22:07:57.092Z,2.26
2024-03-08T22:10:31.133Z,2.32
2024-03-08T22:13:03.184Z,2.32
2024-03-08T22:15:35.327Z,2.13
2024-03-08T22:18:08.010Z,2.07
2024-03-08T22:20:40.138Z,2.04
2024-03-08T22:23:13.242Z,2.02
2024-03-08T22:25:45.483Z,2.17
2024-03-08T22:28:19.301Z,2.17
2024-03-08T22:30:52.997Z,2.08
2024-03-08T22:33:26.527Z,2.06
2024-03-08T22:35:59.387Z,1.99
2024-03-08T22:38:32.024Z,1.93
2024-03-08T22:41:05.047Z,1.91
2024-03-08T22:43:38.659Z,1.83
2024-03-08T22:46:10.699Z,1.71
2024-03-08T22:48:43.193Z,1.62
2024-03-08T22:51:16.712Z,1.66
2024-03-08T22:53:48.095Z,1.64
2024-03-08T22:56:19.740Z,1.56
2024-03-08T22:58:52.708Z,1.47
2024-03-08T23:01:24.759Z,1.40
2024-03-08T23:03:56.349Z,1.41
2024-03-08T23:06:27.857Z,1.43
2024-03-08T23:09:00.010Z,1.31
2024-03-08T23:11:31.442Z,1.29
2024-03-08T23:14:04.462Z,1.38
2024-03-08T23:16:36.616Z,1.32
2024-03-08T23:19:09.092Z,1.41
2024-03-08T23:21:40.699Z,1.36
2024-03-08T23:24:12.532Z,1.23
2024-03-08T23:26:46.590Z,1.32
2024-03-08T23:29:18.992Z,1.36
2024-03-08T23:31:50.476Z,1.36
2024-03-08T23:34:22.150Z,1.30
2024-03-08T23:36:54.556Z,1.20
2024-03-08T23:39:27.576Z,0.99
2024-03-08T23:42:00.358Z,0.91
2024-03-08T23:44:31.924Z,0.92
2024-03-08T23:47:06.756Z,0.94
2024-03-08T23:49:36.502Z,0.93
2024-03-08T23:52:11.328Z,0.89
2024-03-08T23:54:42.431Z,0.85
2024-03-08T23:57:14.739Z,0.89
2024-03-08T23:59:49.029Z,0.83
